EOH weather

Enrique Olaya Herrera Airport
Medellín, Antioquía Department, Colombia

Public forecast

Using degrees Celsius for public forecast. Weather courtesy of forecast.io.

METAR (pilot weather report)

Retrieved 2019/04/25 11:00 UTC (30 minutes ago):

SKMD 251100Z VRB02KT 9999 SCT015 OVC070 18/17 A3013

TAF (pilot weather forecast)

Closest forecast is Jose Maria Córdova International Airport, 10.5 nm (19.5 km) ESE. Retrieved 2019/04/25 06:30 UTC (5 hours ago):

TAF SKRG 250430Z 2506/2606 VRB02KT 9999 BKN007 SCT080 TEMPO 2507/2512 3000 DZ BR BKN010 BECMG 2514/2516 12008KT SCT016 TEMPO 2520/2523 5000 TSRA SCT017CB BKN080 BECMG 2523/2601 VRB02KT TEMPO 2602/2605 5000 DZ BKN010 TX22/2518Z TN13/2511Z